sensor_id;sensor_type;location;lat;lon;timestamp;P1;durP1;ratioP1;P2;durP2;ratioP2
16624;SDS011;8426;48.496;9.098;2022-07-29T00:04:04;5.20;;;3.88;;
16624;SDS011;8426;48.496;9.098;2022-07-29T00:09:07;5.68;;;3.70;;
16624;SDS011;8426;48.496;9.098;2022-07-29T00:14:11;5.40;;;3.90;;
16624;SDS011;8426;48.496;9.098;2022-07-29T00:19:17;5.53;;;4.10;;
16624;SDS011;8426;48.496;9.098;2022-07-29T00:24:21;5.90;;;4.05;;
16624;SDS011;8426;48.496;9.098;2022-07-29T00:29:24;4.95;;;3.78;;
16624;SDS011;8426;48.496;9.098;2022-07-29T00:34:37;7.43;;;4.15;;
16624;SDS011;8426;48.496;9.098;2022-07-29T00:39:58;4.20;;;3.55;;
16624;SDS011;8426;48.496;9.098;2022-07-29T00:45:01;6.38;;;3.97;;
16624;SDS011;8426;48.496;9.098;2022-07-29T00:50:08;6.68;;;3.45;;
16624;SDS011;8426;48.496;9.098;2022-07-29T00:55:14;3.97;;;3.58;;
16624;SDS011;8426;48.496;9.098;2022-07-29T01:00:19;4.93;;;3.38;;
16624;SDS011;8426;48.496;9.098;2022-07-29T01:05:26;5.10;;;3.50;;
16624;SDS011;8426;48.496;9.098;2022-07-29T01:10:50;6.10;;;3.05;;
16624;SDS011;8426;48.496;9.098;2022-07-29T01:15:58;4.95;;;3.28;;
16624;SDS011;8426;48.496;9.098;2022-07-29T01:21:16;4.88;;;3.67;;
16624;SDS011;8426;48.496;9.098;2022-07-29T01:26:34;8.82;;;4.00;;
16624;SDS011;8426;48.496;9.098;2022-07-29T01:31:54;4.70;;;3.35;;
16624;SDS011;8426;48.496;9.098;2022-07-29T01:37:04;4.47;;;3.35;;
16624;SDS011;8426;48.496;9.098;2022-07-29T01:42:12;4.78;;;3.20;;
16624;SDS011;8426;48.496;9.098;2022-07-29T01:47:23;4.00;;;3.20;;
16624;SDS011;8426;48.496;9.098;2022-07-29T01:52:38;7.88;;;4.05;;
16624;SDS011;8426;48.496;9.098;2022-07-29T01:57:46;6.20;;;3.60;;
16624;SDS011;8426;48.496;9.098;2022-07-29T02:02:52;21.65;;;7.57;;
16624;SDS011;8426;48.496;9.098;2022-07-29T02:07:57;16.40;;;5.43;;
16624;SDS011;8426;48.496;9.098;2022-07-29T02:13:03;5.28;;;4.65;;
16624;SDS011;8426;48.496;9.098;2022-07-29T02:18:16;4.88;;;3.83;;
16624;SDS011;8426;48.496;9.098;2022-07-29T02:23:22;4.57;;;3.88;;
16624;SDS011;8426;48.496;9.098;2022-07-29T02:28:27;5.85;;;5.05;;
16624;SDS011;8426;48.496;9.098;2022-07-29T02:33:36;5.40;;;4.63;;
16624;SDS011;8426;48.496;9.098;2022-07-29T02:38:43;5.80;;;4.60;;
16624;SDS011;8426;48.496;9.098;2022-07-29T02:43:54;5.15;;;4.63;;
16624;SDS011;8426;48.496;9.098;2022-07-29T02:49:04;5.05;;;4.30;;
16624;SDS011;8426;48.496;9.098;2022-07-29T02:54:14;6.97;;;5.82;;
16624;SDS011;8426;48.496;9.098;2022-07-29T02:59:24;12.05;;;5.65;;
16624;SDS011;8426;48.496;9.098;2022-07-29T03:04:31;8.35;;;5.25;;
16624;SDS011;8426;48.496;9.098;2022-07-29T03:09:36;10.65;;;6.50;;
16624;SDS011;8426;48.496;9.098;2022-07-29T03:14:41;8.70;;;5.72;;
16624;SDS011;8426;48.496;9.098;2022-07-29T03:19:47;7.32;;;5.25;;
16624;SDS011;8426;48.496;9.098;2022-07-29T03:24:51;8.73;;;5.68;;
16624;SDS011;8426;48.496;9.098;2022-07-29T03:29:54;10.80;;;5.70;;
16624;SDS011;8426;48.496;9.098;2022-07-29T03:34:59;6.50;;;5.35;;
16624;SDS011;8426;48.496;9.098;2022-07-29T03:40:03;6.57;;;5.28;;
16624;SDS011;8426;48.496;9.098;2022-07-29T03:45:12;8.95;;;6.10;;
16624;SDS011;8426;48.496;9.098;2022-07-29T03:50:21;8.35;;;5.13;;
16624;SDS011;8426;48.496;9.098;2022-07-29T03:55:32;7.68;;;5.32;;
16624;SDS011;8426;48.496;9.098;2022-07-29T04:00:43;7.75;;;5.40;;
16624;SDS011;8426;48.496;9.098;2022-07-29T04:06:01;7.13;;;5.32;;
16624;SDS011;8426;48.496;9.098;2022-07-29T04:11:08;6.93;;;5.18;;
16624;SDS011;8426;48.496;9.098;2022-07-29T04:16:11;7.63;;;5.28;;
16624;SDS011;8426;48.496;9.098;2022-07-29T04:21:16;9.20;;;5.57;;
16624;SDS011;8426;48.496;9.098;2022-07-29T04:26:44;7.15;;;5.32;;
16624;SDS011;8426;48.496;9.098;2022-07-29T04:31:49;6.68;;;5.50;;
16624;SDS011;8426;48.496;9.098;2022-07-29T04:36:53;6.35;;;5.10;;
16624;SDS011;8426;48.496;9.098;2022-07-29T04:41:58;7.47;;;5.75;;
16624;SDS011;8426;48.496;9.098;2022-07-29T04:47:03;8.82;;;5.50;;
16624;SDS011;8426;48.496;9.098;2022-07-29T04:52:11;6.55;;;5.13;;
16624;SDS011;8426;48.496;9.098;2022-07-29T04:57:14;6.38;;;5.07;;
16624;SDS011;8426;48.496;9.098;2022-07-29T05:02:17;7.43;;;5.50;;
16624;SDS011;8426;48.496;9.098;2022-07-29T05:07:23;6.28;;;4.88;;
16624;SDS011;8426;48.496;9.098;2022-07-29T05:12:26;8.98;;;5.70;;
16624;SDS011;8426;48.496;9.098;2022-07-29T05:17:30;59.30;;;7.47;;
16624;SDS011;8426;48.496;9.098;2022-07-29T05:22:35;7.65;;;5.50;;
16624;SDS011;8426;48.496;9.098;2022-07-29T05:27:38;7.30;;;5.55;;
16624;SDS011;8426;48.496;9.098;2022-07-29T05:32:42;8.35;;;4.95;;
16624;SDS011;8426;48.496;9.098;2022-07-29T05:37:47;5.60;;;4.75;;
16624;SDS011;8426;48.496;9.098;2022-07-29T05:42:51;7.13;;;3.58;;
16624;SDS011;8426;48.496;9.098;2022-07-29T05:47:55;4.57;;;3.15;;
16624;SDS011;8426;48.496;9.098;2022-07-29T05:53:01;3.92;;;3.05;;
16624;SDS011;8426;48.496;9.098;2022-07-29T05:58:20;4.55;;;2.55;;
16624;SDS011;8426;48.496;9.098;2022-07-29T06:03:29;5.13;;;2.60;;
16624;SDS011;8426;48.496;9.098;2022-07-29T06:08:34;4.10;;;2.78;;
16624;SDS011;8426;48.496;9.098;2022-07-29T06:13:40;6.15;;;2.53;;
16624;SDS011;8426;48.496;9.098;2022-07-29T06:18:44;3.95;;;2.35;;
16624;SDS011;8426;48.496;9.098;2022-07-29T06:23:49;5.55;;;2.65;;
16624;SDS011;8426;48.496;9.098;2022-07-29T06:28:53;2.90;;;2.57;;
16624;SDS011;8426;48.496;9.098;2022-07-29T06:33:57;3.20;;;2.50;;
16624;SDS011;8426;48.496;9.098;2022-07-29T06:39:02;4.75;;;1.88;;
16624;SDS011;8426;48.496;9.098;2022-07-29T06:44:07;7.00;;;2.13;;
16624;SDS011;8426;48.496;9.098;2022-07-29T06:49:11;3.42;;;2.20;;
16624;SDS011;8426;48.496;9.098;2022-07-29T06:54:16;2.50;;;1.60;;
16624;SDS011;8426;48.496;9.098;2022-07-29T06:59:20;2.03;;;1.60;;
16624;SDS011;8426;48.496;9.098;2022-07-29T07:04:35;5.05;;;1.60;;
16624;SDS011;8426;48.496;9.098;2022-07-29T07:09:40;3.65;;;1.48;;
16624;SDS011;8426;48.496;9.098;2022-07-29T07:14:44;2.85;;;1.60;;
16624;SDS011;8426;48.496;9.098;2022-07-29T07:19:47;4.13;;;2.00;;
16624;SDS011;8426;48.496;9.098;2022-07-29T07:24:52;5.15;;;1.83;;
16624;SDS011;8426;48.496;9.098;2022-07-29T07:29:55;4.70;;;1.88;;
16624;SDS011;8426;48.496;9.098;2022-07-29T07:34:58;4.22;;;1.83;;
16624;SDS011;8426;48.496;9.098;2022-07-29T07:40:04;3.78;;;1.75;;
16624;SDS011;8426;48.496;9.098;2022-07-29T07:45:08;5.63;;;2.03;;
16624;SDS011;8426;48.496;9.098;2022-07-29T07:50:16;3.15;;;1.70;;
16624;SDS011;8426;48.496;9.098;2022-07-29T07:55:21;3.28;;;1.65;;
16624;SDS011;8426;48.496;9.098;2022-07-29T08:00:28;9.63;;;1.73;;
16624;SDS011;8426;48.496;9.098;2022-07-29T08:05:32;3.33;;;1.83;;
16624;SDS011;8426;48.496;9.098;2022-07-29T08:10:41;6.18;;;1.90;;
16624;SDS011;8426;48.496;9.098;2022-07-29T08:15:57;4.32;;;1.80;;
16624;SDS011;8426;48.496;9.098;2022-07-29T08:21:03;6.93;;;1.83;;
16624;SDS011;8426;48.496;9.098;2022-07-29T08:26:08;3.58;;;1.73;;
16624;SDS011;8426;48.496;9.098;2022-07-29T08:31:13;2.85;;;1.70;;
16624;SDS011;8426;48.496;9.098;2022-07-29T08:36:17;9.38;;;1.85;;
16624;SDS011;8426;48.496;9.098;2022-07-29T08:41:24;3.78;;;1.80;;
16624;SDS011;8426;48.496;9.098;2022-07-29T08:46:27;3.85;;;1.77;;
16624;SDS011;8426;48.496;9.098;2022-07-29T08:51:31;6.85;;;1.80;;
16624;SDS011;8426;48.496;9.098;2022-07-29T08:56:51;4.70;;;1.80;;
16624;SDS011;8426;48.496;9.098;2022-07-29T09:01:56;2.05;;;1.77;;
16624;SDS011;8426;48.496;9.098;2022-07-29T09:07:03;2.65;;;1.55;;
16624;SDS011;8426;48.496;9.098;2022-07-29T09:12:09;2.80;;;1.83;;
16624;SDS011;8426;48.496;9.098;2022-07-29T09:17:39;3.72;;;1.90;;
16624;SDS011;8426;48.496;9.098;2022-07-29T09:22:43;4.80;;;1.85;;
16624;SDS011;8426;48.496;9.098;2022-07-29T09:27:51;3.47;;;2.13;;
16624;SDS011;8426;48.496;9.098;2022-07-29T09:32:55;4.38;;;2.05;;
16624;SDS011;8426;48.496;9.098;2022-07-29T09:38:09;3.20;;;2.20;;
16624;SDS011;8426;48.496;9.098;2022-07-29T09:43:15;5.28;;;2.65;;
16624;SDS011;8426;48.496;9.098;2022-07-29T09:48:19;3.55;;;2.50;;
16624;SDS011;8426;48.496;9.098;2022-07-29T09:53:47;5.00;;;2.17;;
16624;SDS011;8426;48.496;9.098;2022-07-29T09:59:01;4.93;;;2.20;;
16624;SDS011;8426;48.496;9.098;2022-07-29T10:04:09;3.40;;;2.00;;
16624;SDS011;8426;48.496;9.098;2022-07-29T10:09:12;6.43;;;2.20;;
16624;SDS011;8426;48.496;9.098;2022-07-29T10:14:23;6.32;;;2.58;;
16624;SDS011;8426;48.496;9.098;2022-07-29T10:19:55;2.78;;;2.13;;
16624;SDS011;8426;48.496;9.098;2022-07-29T10:24:58;6.00;;;2.47;;
16624;SDS011;8426;48.496;9.098;2022-07-29T10:30:04;3.88;;;2.70;;
16624;SDS011;8426;48.496;9.098;2022-07-29T10:35:12;5.28;;;2.55;;
16624;SDS011;8426;48.496;9.098;2022-07-29T10:40:32;3.25;;;2.38;;
16624;SDS011;8426;48.496;9.098;2022-07-29T10:46:08;4.10;;;2.90;;
16624;SDS011;8426;48.496;9.098;2022-07-29T10:51:13;8.05;;;3.38;;
16624;SDS011;8426;48.496;9.098;2022-07-29T10:56:24;5.47;;;2.60;;
16624;SDS011;8426;48.496;9.098;2022-07-29T11:01:54;2.83;;;2.53;;
16624;SDS011;8426;48.496;9.098;2022-07-29T11:07:17;3.55;;;2.85;;
16624;SDS011;8426;48.496;9.098;2022-07-29T11:18:06;3.50;;;2.53;;
16624;SDS011;8426;48.496;9.098;2022-07-29T11:23:23;5.07;;;2.15;;
16624;SDS011;8426;48.496;9.098;2022-07-29T11:28:34;3.63;;;2.75;;
16624;SDS011;8426;48.496;9.098;2022-07-29T11:33:45;9.30;;;2.53;;
16624;SDS011;8426;48.496;9.098;2022-07-29T11:49:58;5.82;;;2.10;;
16624;SDS011;8426;48.496;9.098;2022-07-29T11:55:13;1.98;;;1.52;;
16624;SDS011;8426;48.496;9.098;2022-07-29T12:00:22;3.42;;;1.58;;
16624;SDS011;8426;48.496;9.098;2022-07-29T12:05:39;2.63;;;1.83;;
16624;SDS011;8426;48.496;9.098;2022-07-29T12:10:53;3.85;;;2.00;;
16624;SDS011;8426;48.496;9.098;2022-07-29T12:15:57;4.53;;;1.88;;
16624;SDS011;8426;48.496;9.098;2022-07-29T12:21:04;2.08;;;1.80;;
16624;SDS011;8426;48.496;9.098;2022-07-29T12:26:08;3.78;;;1.38;;
16624;SDS011;8426;48.496;9.098;2022-07-29T12:31:26;4.50;;;2.08;;
16624;SDS011;8426;48.496;9.098;2022-07-29T12:36:59;3.80;;;2.00;;
16624;SDS011;8426;48.496;9.098;2022-07-29T12:42:10;2.88;;;1.90;;
16624;SDS011;8426;48.496;9.098;2022-07-29T12:47:18;6.90;;;2.40;;
16624;SDS011;8426;48.496;9.098;2022-07-29T12:52:26;7.00;;;1.90;;
16624;SDS011;8426;48.496;9.098;2022-07-29T12:57:31;6.35;;;2.20;;
16624;SDS011;8426;48.496;9.098;2022-07-29T13:02:35;4.55;;;2.83;;
16624;SDS011;8426;48.496;9.098;2022-07-29T13:07:41;4.88;;;2.90;;
16624;SDS011;8426;48.496;9.098;2022-07-29T13:13:04;7.03;;;3.15;;
16624;SDS011;8426;48.496;9.098;2022-07-29T13:23:32;6.20;;;3.63;;
16624;SDS011;8426;48.496;9.098;2022-07-29T13:28:38;4.43;;;3.03;;
16624;SDS011;8426;48.496;9.098;2022-07-29T13:33:44;3.63;;;2.70;;
16624;SDS011;8426;48.496;9.098;2022-07-29T13:38:50;3.80;;;2.60;;
16624;SDS011;8426;48.496;9.098;2022-07-29T13:43:59;3.45;;;2.75;;
16624;SDS011;8426;48.496;9.098;2022-07-29T13:49:03;3.95;;;2.70;;
16624;SDS011;8426;48.496;9.098;2022-07-29T13:54:13;5.07;;;2.80;;
16624;SDS011;8426;48.496;9.098;2022-07-29T13:59:16;10.93;;;2.72;;
16624;SDS011;8426;48.496;9.098;2022-07-29T14:04:20;4.18;;;2.67;;
16624;SDS011;8426;48.496;9.098;2022-07-29T14:09:27;3.70;;;2.78;;
16624;SDS011;8426;48.496;9.098;2022-07-29T14:14:41;5.07;;;2.40;;
16624;SDS011;8426;48.496;9.098;2022-07-29T14:19:47;5.18;;;2.20;;
16624;SDS011;8426;48.496;9.098;2022-07-29T14:24:52;2.92;;;2.50;;
16624;SDS011;8426;48.496;9.098;2022-07-29T14:29:56;3.35;;;2.70;;
16624;SDS011;8426;48.496;9.098;2022-07-29T14:35:09;8.07;;;3.05;;
16624;SDS011;8426;48.496;9.098;2022-07-29T14:40:14;3.38;;;2.75;;
16624;SDS011;8426;48.496;9.098;2022-07-29T14:45:18;3.80;;;2.55;;
16624;SDS011;8426;48.496;9.098;2022-07-29T14:50:21;5.45;;;2.20;;
16624;SDS011;8426;48.496;9.098;2022-07-29T14:55:50;5.38;;;2.65;;
16624;SDS011;8426;48.496;9.098;2022-07-29T15:00:55;6.70;;;2.78;;
16624;SDS011;8426;48.496;9.098;2022-07-29T15:05:59;6.18;;;3.13;;
16624;SDS011;8426;48.496;9.098;2022-07-29T15:11:04;3.53;;;2.70;;
16624;SDS011;8426;48.496;9.098;2022-07-29T15:16:13;4.47;;;2.80;;
16624;SDS011;8426;48.496;9.098;2022-07-29T15:21:23;6.43;;;2.88;;
16624;SDS011;8426;48.496;9.098;2022-07-29T15:26:28;7.78;;;3.10;;
16624;SDS011;8426;48.496;9.098;2022-07-29T15:31:31;5.38;;;3.35;;
16624;SDS011;8426;48.496;9.098;2022-07-29T15:36:36;6.93;;;2.90;;
16624;SDS011;8426;48.496;9.098;2022-07-29T15:41:54;6.20;;;3.70;;
16624;SDS011;8426;48.496;9.098;2022-07-29T15:47:01;4.47;;;2.90;;
16624;SDS011;8426;48.496;9.098;2022-07-29T15:52:17;17.40;;;3.22;;
16624;SDS011;8426;48.496;9.098;2022-07-29T15:57:29;9.00;;;3.10;;
16624;SDS011;8426;48.496;9.098;2022-07-29T16:02:34;6.85;;;3.47;;
16624;SDS011;8426;48.496;9.098;2022-07-29T16:07:43;3.95;;;3.10;;
16624;SDS011;8426;48.496;9.098;2022-07-29T16:12:48;5.97;;;2.72;;
16624;SDS011;8426;48.496;9.098;2022-07-29T16:17:52;8.02;;;3.22;;
16624;SDS011;8426;48.496;9.098;2022-07-29T16:22:55;3.95;;;3.00;;
16624;SDS011;8426;48.496;9.098;2022-07-29T16:28:00;4.45;;;2.90;;
16624;SDS011;8426;48.496;9.098;2022-07-29T16:33:05;3.47;;;2.70;;
16624;SDS011;8426;48.496;9.098;2022-07-29T16:38:14;3.67;;;2.88;;
16624;SDS011;8426;48.496;9.098;2022-07-29T16:43:23;7.60;;;2.90;;
16624;SDS011;8426;48.496;9.098;2022-07-29T16:48:27;6.60;;;3.25;;
16624;SDS011;8426;48.496;9.098;2022-07-29T16:53:30;4.00;;;3.10;;
16624;SDS011;8426;48.496;9.098;2022-07-29T16:58:35;8.02;;;2.70;;
16624;SDS011;8426;48.496;9.098;2022-07-29T17:03:46;9.15;;;3.92;;
16624;SDS011;8426;48.496;9.098;2022-07-29T17:09:10;4.30;;;2.70;;
16624;SDS011;8426;48.496;9.098;2022-07-29T17:14:18;3.22;;;2.78;;
16624;SDS011;8426;48.496;9.098;2022-07-29T17:19:26;3.95;;;2.30;;
16624;SDS011;8426;48.496;9.098;2022-07-29T17:25:00;4.38;;;2.20;;
16624;SDS011;8426;48.496;9.098;2022-07-29T17:30:07;30.23;;;3.05;;
16624;SDS011;8426;48.496;9.098;2022-07-29T17:40:36;2.53;;;2.03;;
16624;SDS011;8426;48.496;9.098;2022-07-29T17:45:41;3.78;;;1.73;;
16624;SDS011;8426;48.496;9.098;2022-07-29T17:50:57;5.97;;;2.10;;
16624;SDS011;8426;48.496;9.098;2022-07-29T17:56:00;10.95;;;2.10;;
16624;SDS011;8426;48.496;9.098;2022-07-29T18:01:06;3.70;;;2.00;;
16624;SDS011;8426;48.496;9.098;2022-07-29T18:06:10;6.47;;;1.90;;
16624;SDS011;8426;48.496;9.098;2022-07-29T18:11:14;5.75;;;2.03;;
16624;SDS011;8426;48.496;9.098;2022-07-29T18:16:19;4.60;;;2.17;;
16624;SDS011;8426;48.496;9.098;2022-07-29T18:21:24;3.15;;;1.75;;
16624;SDS011;8426;48.496;9.098;2022-07-29T18:26:49;6.15;;;1.98;;
16624;SDS011;8426;48.496;9.098;2022-07-29T18:31:55;3.85;;;2.10;;
16624;SDS011;8426;48.496;9.098;2022-07-29T18:37:02;5.00;;;2.03;;
16624;SDS011;8426;48.496;9.098;2022-07-29T18:42:08;3.20;;;1.88;;
16624;SDS011;8426;48.496;9.098;2022-07-29T18:47:14;2.17;;;1.65;;
16624;SDS011;8426;48.496;9.098;2022-07-29T18:52:42;3.08;;;1.45;;
16624;SDS011;8426;48.496;9.098;2022-07-29T18:57:47;2.72;;;1.77;;
16624;SDS011;8426;48.496;9.098;2022-07-29T19:02:58;2.33;;;1.52;;
16624;SDS011;8426;48.496;9.098;2022-07-29T19:08:03;2.30;;;1.38;;
16624;SDS011;8426;48.496;9.098;2022-07-29T19:13:08;2.45;;;1.50;;
16624;SDS011;8426;48.496;9.098;2022-07-29T19:18:15;2.75;;;1.40;;
16624;SDS011;8426;48.496;9.098;2022-07-29T19:23:18;5.47;;;1.50;;
16624;SDS011;8426;48.496;9.098;2022-07-29T19:28:22;3.17;;;1.70;;
16624;SDS011;8426;48.496;9.098;2022-07-29T19:33:28;2.08;;;1.30;;
16624;SDS011;8426;48.496;9.098;2022-07-29T19:38:32;1.90;;;1.20;;
16624;SDS011;8426;48.496;9.098;2022-07-29T19:43:36;2.30;;;1.38;;
16624;SDS011;8426;48.496;9.098;2022-07-29T19:48:55;2.40;;;1.70;;
16624;SDS011;8426;48.496;9.098;2022-07-29T19:53:59;4.70;;;1.73;;
16624;SDS011;8426;48.496;9.098;2022-07-29T19:59:04;3.13;;;1.45;;
16624;SDS011;8426;48.496;9.098;2022-07-29T20:04:10;2.67;;;1.65;;
16624;SDS011;8426;48.496;9.098;2022-07-29T20:09:13;6.72;;;1.90;;
16624;SDS011;8426;48.496;9.098;2022-07-29T20:14:23;2.78;;;1.80;;
16624;SDS011;8426;48.496;9.098;2022-07-29T20:19:31;3.05;;;2.08;;
16624;SDS011;8426;48.496;9.098;2022-07-29T20:24:34;7.13;;;2.58;;
16624;SDS011;8426;48.496;9.098;2022-07-29T20:34:49;5.63;;;1.92;;
16624;SDS011;8426;48.496;9.098;2022-07-29T20:39:53;4.53;;;2.13;;
16624;SDS011;8426;48.496;9.098;2022-07-29T20:44:56;6.00;;;2.83;;
16624;SDS011;8426;48.496;9.098;2022-07-29T20:50:01;3.97;;;2.08;;
16624;SDS011;8426;48.496;9.098;2022-07-29T20:55:06;5.32;;;2.35;;
16624;SDS011;8426;48.496;9.098;2022-07-29T21:00:10;3.35;;;2.17;;
16624;SDS011;8426;48.496;9.098;2022-07-29T21:05:17;3.97;;;1.83;;
16624;SDS011;8426;48.496;9.098;2022-07-29T21:10:20;6.15;;;1.73;;
16624;SDS011;8426;48.496;9.098;2022-07-29T21:15:25;8.90;;;1.98;;
16624;SDS011;8426;48.496;9.098;2022-07-29T21:20:31;3.60;;;2.05;;
16624;SDS011;8426;48.496;9.098;2022-07-29T21:25:35;5.95;;;1.52;;
16624;SDS011;8426;48.496;9.098;2022-07-29T21:30:38;5.38;;;2.05;;
16624;SDS011;8426;48.496;9.098;2022-07-29T21:35:43;4.20;;;1.65;;
16624;SDS011;8426;48.496;9.098;2022-07-29T21:41:09;6.07;;;1.65;;
16624;SDS011;8426;48.496;9.098;2022-07-29T21:46:13;2.63;;;2.08;;
16624;SDS011;8426;48.496;9.098;2022-07-29T21:51:19;3.17;;;1.83;;
16624;SDS011;8426;48.496;9.098;2022-07-29T21:56:23;5.38;;;1.88;;
16624;SDS011;8426;48.496;9.098;2022-07-29T22:01:28;7.55;;;1.75;;
16624;SDS011;8426;48.496;9.098;2022-07-29T22:06:41;8.80;;;1.83;;
16624;SDS011;8426;48.496;9.098;2022-07-29T22:11:44;4.18;;;2.10;;
16624;SDS011;8426;48.496;9.098;2022-07-29T22:16:49;2.63;;;2.00;;
16624;SDS011;8426;48.496;9.098;2022-07-29T22:21:53;2.97;;;1.95;;
16624;SDS011;8426;48.496;9.098;2022-07-29T22:26:57;8.98;;;2.10;;
16624;SDS011;8426;48.496;9.098;2022-07-29T22:32:00;4.40;;;1.60;;
16624;SDS011;8426;48.496;9.098;2022-07-29T22:37:05;3.95;;;1.85;;
16624;SDS011;8426;48.496;9.098;2022-07-29T22:42:09;6.25;;;2.13;;
16624;SDS011;8426;48.496;9.098;2022-07-29T22:47:13;2.85;;;1.77;;
16624;SDS011;8426;48.496;9.098;2022-07-29T22:52:18;4.00;;;1.98;;
16624;SDS011;8426;48.496;9.098;2022-07-29T22:57:26;3.40;;;1.95;;
16624;SDS011;8426;48.496;9.098;2022-07-29T23:02:29;3.88;;;2.13;;
16624;SDS011;8426;48.496;9.098;2022-07-29T23:07:34;5.72;;;1.90;;
16624;SDS011;8426;48.496;9.098;2022-07-29T23:12:37;2.58;;;1.85;;
16624;SDS011;8426;48.496;9.098;2022-07-29T23:17:41;3.97;;;1.98;;
16624;SDS011;8426;48.496;9.098;2022-07-29T23:22:46;4.63;;;2.20;;
16624;SDS011;8426;48.496;9.098;2022-07-29T23:27:49;3.47;;;2.10;;
16624;SDS011;8426;48.496;9.098;2022-07-29T23:32:53;5.63;;;1.88;;
16624;SDS011;8426;48.496;9.098;2022-07-29T23:37:58;4.60;;;2.38;;
16624;SDS011;8426;48.496;9.098;2022-07-29T23:43:01;3.13;;;2.30;;
16624;SDS011;8426;48.496;9.098;2022-07-29T23:53:17;3.75;;;2.40;;
16624;SDS011;8426;48.496;9.098;2022-07-29T23:58:23;3.90;;;2.20;;
